Terminal Aerodrome Forecast
Issued by NWS

Home | Current Version | Previous Version | Text Only | Print | Product List | Glossary On
Versions: 1 2 3 4 5 6 7 8 9 10 11 12 13 14 15 16 17 18 19 20 21
000
FTUS46 KSEW 191700
TAFHQM
TAF
KHQM 191728Z 1918/2018 07008KT 6SM -SHRA BR SCT020 OVC050
      TEMPO 1918/1922 20013G22KT 4SM -SHRA BR OVC015
     FM200000 24015G25KT P6SM -SHRA BKN035 OVC050
     FM200400 22013KT P6SM VCSH BKN035 BKN050
     FM201000 12006KT P6SM BKN040 BKN060=

USA.gov is the U.S. government's official web portal to all federal, state and local government web resources and services.